Hovedside
METAR-TAF:

METAR-TAF

Lufthavner :

Jämsä, Finland

Halli lufthavn

breddegrad: 61-51N, lengdegrad: 024-48E, høyde over havet: 143 m

Gjeldene værobservasjon

Denne rapporten ble laget for 38 minutter siden, klokken 21:20 UTC
Vind 4 kt fra Sør-sørøst
Temperatur 16°C
Luftfuktighet 100%
Trykk 1012 hPa
Sikt 10 km eller mer
ingen skyer under 1500 m og ingen bygeskyer

METAR: EFHA 182120Z AUTO 15004KT CAVOK 16/16 Q1012

Tid: 00:58 (21:58 UTC)

Varsel

Denne rapporten ble laget for 10 timer og 31 minutter siden, klokken 11:27 UTC
Varsel gyldig fra 18. klokken 12 UTC til 18. klokken 14 UTC
Vind 7 kt fra Sør
Sikt 10 km eller mer
Brutte skyer i en høyde av 1500 ft
Midlertidig
fra 18. klokken 12 UTC til 18. klokken 14 UTC
Brutte skyer i en høyde av 1200 ft
Spredte skyer i en høyde av 2000 ft, Bygeskyer.
regnbyger

TAF: EFHA 181127Z 1812/1814 19007KT 9999 BKN015 TEMPO 1812/1814 SHRA BKN012 SCT020CB

Værobservasjoner og værvarsel for over 4000 flyplasser (METAR- og TAF-rapporter).

Tilgjengelige stasjoner er representert av de røde og gule prikkene på kartet.

Hold musepekeren over prikken for å se navnet på stasjonen.

Klikk så for å se værobservasjoner og -varsler.

For å forandre kartet kan du klikke på den grønne knappen med svart kryss for å zoome inn, på den grønne knappen med strek for å zoome ut, eller på de grønne pilene for å se tilstøtende kart.


METAR-TAF: